Latest Weather Observations for Wagga Wagga

IDN60801

Issued at 2:12 pm EDT Friday 16 November 2018 (issued every 10 minutes, with the page automatically refreshed every 10 minutes)

About weather observations | Map of weather stations | Latest weather observations for NSW | Other Formats
Station Details ID: 072150 Name: WAGGA WAGGA AMO Lat: -35.16 Lon: 147.46 Height: 212.0 m
Data from the previous 72 hours. | See also: Recent months at Wagga Wagga
Date/Time
EDT
Temp
°C
App
Temp
°C
Dew
Point
°C
Rel
Hum
%
Delta-T
°C
Wind Press
QNH
hPa
Press
MSL
hPa
Rain since
9am
mm
Dir  Spd
km/h
Gust
km/h
Spd
kts
Gust
kts
16/02:00pm 26.2 24.0 7.7 31 9.9 SSE 9 15 5 8 1017.0 1016.5 0.0
16/01:30pm 25.1 21.8 6.3 30 9.8 NNW 13 28 7 15 1017.5 1017.0 0.0
16/01:00pm 24.8 21.3 7.4 33 9.2 WNW 15 26 8 14 1017.8 1017.3 0.0
16/12:30pm 23.8 20.1 6.1 32 9.1 NNW 15 26 8 14 1018.4 1017.9 0.0
16/12:00pm 23.6 21.2 8.8 39 8.0 NNE 11 24 6 13 1018.8 1018.3 0.0
16/11:30am 22.8 20.5 8.9 41 7.5 N 11 20 6 11 1019.2 1018.6 0.0
16/11:00am 22.2 19.1 9.0 43 7.1 ENE 15 20 8 11 1019.4 1018.8 0.0
16/10:30am 21.7 18.2 8.9 44 6.9 ENE 17 26 9 14 1019.4 1018.8 0.0
16/10:00am 20.6 16.9 7.9 44 6.6 ENE 17 28 9 15 1019.8 1019.2 0.0
16/09:30am 19.4 15.0 7.5 46 6.1 ENE 20 26 11 14 1020.1 1019.6 0.0
16/09:00am 18.3 13.4 7.1 48 5.7 ENE 22 30 12 16 1020.1 1019.6 0.2
16/08:30am 17.7 11.8 7.4 51 5.2 ENE 28 35 15 19 1019.9 1019.3 0.2
16/08:00am 16.9 11.5 7.8 55 4.6 ENE 26 37 14 20 1020.0 1019.4 0.2
16/07:30am 16.1 11.6 8.6 61 3.9 E 22 28 12 15 1019.8 1019.2 0.2
16/07:00am 15.3 11.3 8.3 63 3.6 E 19 26 10 14 1019.6 1019.0 0.2
16/06:30am 14.4 10.9 8.6 68 3.0 E 17 19 9 10 1019.6 1019.0 0.2
16/06:00am 13.8 11.4 8.8 72 2.5 ENE 11 15 6 8 1019.7 1019.1 0.2
16/05:30am 14.0 11.7 9.0 72 2.6 E 11 17 6 9 1019.4 1018.8 0.2
16/05:00am 14.0 12.2 9.4 74 2.4 NE 9 15 5 8 1019.4 1018.8 0.2
16/04:30am 14.0 12.6 9.6 75 2.3 ENE 7 11 4 6 1019.2 1018.6 0.2
16/04:00am 14.3 12.6 9.7 74 2.4 ENE 9 15 5 8 1019.4 1018.8 0.2
16/03:30am 14.4 12.4 10.0 75 2.3 NE 11 15 6 8 1019.4 1018.8 0.2
16/03:00am 14.7 11.9 10.1 74 2.4 ENE 15 20 8 11 1019.5 1018.9 0.2
16/02:30am 14.8 12.4 10.2 74 2.4 ENE 13 17 7 9 1019.8 1019.2 0.2
16/02:00am 14.9 13.0 10.5 75 2.3 ENE 11 17 6 9 1019.9 1019.3 0.2
16/01:30am 15.4 13.6 10.8 74 2.5 ENE 11 15 6 8 1020.2 1019.7 0.2
16/01:00am 15.8 13.7 11.2 74 2.5 ENE 13 19 7 10 1020.4 1019.9 0.2
16/12:30am 15.9 13.0 11.1 73 2.6 NE 17 20 9 11 1020.5 1020.0 0.2
16/12:00am 16.2 12.9 6.3 52 4.9 E 13 15 7 8 1020.7 1020.2 0.2
 
Date/Time
EDT
Temp
°C
App
Temp
°C
Dew
Point
°C
Rel
Hum
%
Delta-T
°C
Wind Press
QNH
hPa
Press
MSL
hPa
Rain since
9am
mm
Dir  Spd
km/h
Gust
km/h
Spd
kts
Gust
kts
15/11:30pm 16.6 14.1 4.9 46 5.6 E 7 9 4 5 1020.6 1020.1 0.2
15/11:00pm 17.3 13.2 4.3 42 6.2 ENE 15 22 8 12 1020.4 1019.9 0.2
15/10:30pm 17.1 13.0 4.4 43 6.1 SW 15 19 8 10 1019.7 1019.1 0.2
15/10:00pm 18.1 13.5 3.6 38 6.8 WSW 17 24 9 13 1019.5 1018.9 0.2
15/09:30pm 18.0 15.1 4.6 41 6.5 WSW 9 13 5 7 1019.1 1018.5 0.2
15/09:00pm 19.5 16.0 3.6 35 7.6 WSW 11 15 6 8 1018.4 1017.9 0.2
15/08:30pm 20.6 16.5 4.6 35 7.9 W 15 17 8 9 1017.9 1017.4 0.2
15/08:00pm 21.8 17.2 3.9 31 8.7 W 17 26 9 14 1017.7 1017.2 0.2
15/07:30pm 23.7 18.8 2.0 24 10.4 W 17 20 9 11 1017.4 1016.9 0.2
15/07:00pm 24.7 19.7 3.4 25 10.5 WSW 19 26 10 14 1017.1 1016.6 0.2
15/06:30pm 25.3 19.9 2.7 23 11.1 WSW 20 28 11 15 1016.9 1016.4 0.2
15/06:00pm 25.7 20.7 3.6 24 11.0 W 19 28 10 15 1016.8 1016.3 0.2
15/05:30pm 25.9 20.2 4.9 26 10.7 WSW 24 32 13 17 1016.8 1016.3 0.2
15/05:00pm 26.2 21.0 5.7 27 10.6 WSW 22 30 12 16 1016.8 1016.3 0.2
15/04:30pm 26.3 21.9 4.7 25 11.0 WSW 17 24 9 13 1016.8 1016.3 0.2
15/04:00pm 26.0 20.8 5.6 27 10.6 W 22 30 12 16 1017.0 1016.5 0.2
15/03:30pm 25.4 20.5 5.1 27 10.4 W 20 30 11 16 1017.3 1016.8 0.2
15/03:00pm 25.3 20.6 6.0 29 10.0 WSW 20 35 11 19 1017.6 1017.1 0.2
15/02:30pm 25.5 19.4 6.7 30 9.9 W 28 35 15 19 1017.9 1017.4 0.2
15/02:00pm 25.3 20.7 6.5 30 9.8 WSW 20 32 11 17 1018.1 1017.6 0.2
15/01:30pm 24.3 19.0 5.1 29 9.8 W 22 35 12 19 1018.1 1017.6 0.2
15/01:00pm 24.1 19.8 6.8 33 9.0 W 19 32 10 17 1018.2 1017.7 0.2
15/12:30pm 24.0 20.3 8.0 36 8.6 W 17 28 9 15 1018.4 1017.9 0.2
15/12:00pm 22.9 18.7 8.2 39 7.8 W 20 30 11 16 1018.8 1018.3 0.2
15/11:30am 22.9 19.3 9.7 43 7.2 WNW 19 28 10 15 1018.9 1018.4 0.2
15/11:00am 22.3 19.7 12.0 52 5.8 W 17 24 9 13 1019.1 1018.5 0.2
15/10:30am 21.8 18.9 12.4 55 5.4 W 19 26 10 14 1018.8 1018.3 0.2
15/10:00am 21.3 19.3 14.0 63 4.3 W 17 19 9 10 1018.7 1018.2 0.0
15/09:30am 20.0 19.5 15.0 73 3.0 WNW 11 17 6 9 1018.8 1018.3 0.0
15/09:00am 18.7 17.6 15.4 81 2.0 WNW 15 20 8 11 1018.7 1018.2 0.4
15/08:30am 18.3 17.7 15.6 84 1.6 NW 13 17 7 9 1018.4 1017.9 0.4
15/08:00am 17.7 18.2 16.6 93 0.7 NW 9 13 5 7 1018.0 1017.5 0.4
15/07:30am 16.7 17.2 16.5 99 0.1 NW 9 13 5 7 1017.6 1017.1 0.4
15/07:00am 16.2 16.5 16.0 99 0.1 N 9 11 5 6 1017.2 1016.7 0.4
15/06:30am 15.5 17.3 15.5 100 0.0 CALM 0 0 0 0 1016.8 1016.3 0.4
15/06:00am 15.2 16.8 15.0 99 0.1 CALM 0 0 0 0 1016.3 1015.8 0.4
15/05:30am 15.7 15.8 15.5 99 0.1 WNW 9 11 5 6 1015.9 1015.3 0.4
15/05:00am 15.9 17.9 15.9 100 0.0 CALM 0 0 0 0 1015.8 1015.2 0.4
15/04:30am 15.8 16.6 15.8 100 0.0 N 6 7 3 4 1015.5 1014.9 0.4
15/04:00am 15.6 17.4 15.4 99 0.1 CALM 0 0 0 0 1015.2 1014.6 0.4
15/03:30am 15.4 17.1 15.2 99 0.1 CALM 0 0 0 0 1015.1 1014.5 0.4
15/03:00am 15.4 17.1 15.1 98 0.2 CALM 0 4 0 2 1015.0 1014.4 0.4
15/02:30am 15.7 16.1 15.4 98 0.2 SW 7 9 4 5 1014.9 1014.3 0.4
15/02:00am 16.4 18.3 15.8 96 0.4 CALM 0 0 0 0 1015.0 1014.4 0.4
15/01:30am 17.3 17.9 15.8 91 0.9 ESE 7 9 4 5 1015.2 1014.6 0.4
15/01:00am 17.7 20.0 16.7 94 0.6 CALM 0 2 0 1 1015.5 1014.9 0.4
15/12:30am 17.9 19.3 17.7 99 0.1 SSW 7 11 4 6 1015.6 1015.0 0.4
15/12:00am 17.3 17.9 16.8 97 0.3 SSW 9 11 5 6 1015.6 1015.0 0.4
 
Date/Time
EDT
Temp
°C
App
Temp
°C
Dew
Point
°C
Rel
Hum
%
Delta-T
°C
Wind Press
QNH
hPa
Press
MSL
hPa
Rain since
9am
mm
Dir  Spd
km/h
Gust
km/h
Spd
kts
Gust
kts
14/11:30pm 17.4 18.5 17.1 98 0.2 SSW 7 9 4 5 1015.4 1014.8 0.4
14/11:00pm 17.7 20.3 17.5 99 0.1 CALM 0 0 0 0 1015.4 1014.8 0.4
14/10:30pm 17.8 20.2 17.0 95 0.5 CALM 0 0 0 0 1015.3 1014.7 0.4
14/10:00pm 18.9 20.1 14.8 77 2.4 NNE 2 7 1 4 1015.2 1014.6 0.4
14/09:30pm 19.4 19.6 15.7 79 2.2 NE 9 9 5 5 1015.1 1014.5 0.4
14/09:00pm 19.8 20.0 15.7 77 2.5 E 9 13 5 7 1014.8 1014.2 0.4
14/08:30pm 19.5 19.5 16.2 81 2.0 SSE 11 15 6 8 1014.8 1014.2 0.4
14/08:00pm 17.9 14.1 14.6 81 1.9 SW 28 43 15 23 1015.0 1014.4 0.4
14/07:59pm 17.8 13.5 14.5 81 1.9 SW 30 43 16 23 1015.0 1014.4 0.4
14/07:45pm 20.1 14.0 14.0 68 3.6 WSW 39 57 21 31 1015.0 1014.4 0.2
14/07:43pm 20.5 14.2 14.6 69 3.5 WSW 41 57 22 31 1014.9 1014.3 0.2
14/07:33pm 22.3 21.2 15.2 64 4.3 WNW 15 37 8 20 1014.6 1014.0 0.2
14/07:30pm 23.3 22.7 14.6 58 5.2 NW 11 15 6 8 1014.5 1013.9 0.2
14/07:00pm 24.5 24.2 14.3 53 6.1 NW 9 9 5 5 1013.6 1013.1 0.2
14/06:30pm 24.8 23.5 13.7 50 6.6 WNW 13 19 7 10 1013.5 1013.0 0.2
14/06:00pm 26.1 24.6 14.2 48 7.1 NW 15 22 8 12 1013.5 1013.0 0.2
14/05:30pm 25.4 24.0 13.3 47 7.1 WNW 13 22 7 12 1013.5 1013.0 0.2
14/05:00pm 26.2 24.3 13.0 44 7.8 WSW 15 20 8 11 1013.4 1012.9 0.2
14/04:30pm 26.4 26.1 14.5 48 7.2 W 9 13 5 7 1013.5 1013.0 0.2
14/04:00pm 25.8 24.6 14.0 48 7.0 NW 13 20 7 11 1013.6 1013.1 0.2
14/03:30pm 25.5 24.6 13.7 48 7.0 WNW 11 19 6 10 1013.8 1013.3 0.2
14/03:00pm 24.4 23.2 13.9 52 6.2 W 13 19 7 10 1014.2 1013.6 0.2
14/02:30pm 25.1 24.8 14.3 51 6.5 W 9 17 5 9 1014.5 1013.9 0.2
14/02:00pm 24.2 23.9 16.5 62 4.8 WNW 13 19 7 10 1014.9 1014.3 0.2
14/01:30pm 22.7 22.2 14.8 61 4.7 NNW 11 17 6 9 1015.2 1014.6 0.2
14/01:00pm 21.9 22.2 16.0 69 3.6 WNW 9 19 5 10 1015.3 1014.7 0.2
14/12:30pm 21.3 21.1 15.6 70 3.4 W 11 17 6 9 1015.6 1015.0 0.2
14/12:00pm 21.1 21.6 17.5 80 2.2 WSW 11 19 6 10 1015.8 1015.2 0.0
14/11:54am 20.2 20.0 15.6 75 2.8 WSW 11 15 6 8 1015.9 1015.3 0.0
14/11:30am 19.3 19.5 17.6 90 1.0 WSW 13 17 7 9 1016.1 1015.6 0.0
14/11:00am 18.3 19.2 17.5 95 0.5 WSW 9 13 5 7 1016.1 1015.6 0.0
14/10:30am 18.3 19.7 17.7 96 0.4 W 7 9 4 5 1015.9 1015.3 0.0
14/10:00am 17.7 18.2 17.5 99 0.1 WNW 11 13 6 7 1015.8 1015.2 0.0
14/09:30am 17.7 18.6 17.5 99 0.1 WNW 9 11 5 6 1015.5 1014.9 0.0
14/09:00am 17.2 18.0 17.2 100 0.0 W 9 11 5 6 1015.3 1014.7 34.6
14/08:30am 16.9 17.5 16.9 100 0.0 WNW 9 11 5 6 1015.1 1014.5 34.6
14/08:28am 17.0 17.7 17.0 100 0.0 WNW 9 11 5 6 1015.1 1014.5 34.6
14/08:04am 16.9 17.2 16.9 100 0.0 WNW 11 11 6 6 1014.9 1014.3 34.0
14/08:00am 16.8 17.4 16.8 100 0.0 WNW 9 11 5 6 1014.9 1014.3 33.8
14/07:34am 16.7 19.0 16.7 100 0.0 CALM 0 6 0 3 1014.4 1013.8 33.8
14/07:30am 16.7 19.0 16.7 100 0.0 CALM 0 0 0 0 1014.4 1013.8 33.8
14/07:00am 16.5 16.6 16.5 100 0.0 WSW 11 13 6 7 1014.2 1013.6 33.2
14/06:30am 16.5 16.6 16.5 100 0.0 SW 11 13 6 7 1013.8 1013.3 29.6
14/06:00am 17.1 17.1 17.1 100 0.0 N 13 17 7 9 1013.4 1012.9 26.8
14/05:40am 17.1 15.9 17.1 100 0.0 N 19 26 10 14 1013.3 1012.8 23.8
14/05:38am 17.1 15.9 17.1 100 0.0 N 19 26 10 14 1013.3 1012.8 23.6
14/05:30am 17.2 16.1 17.2 100 0.0 N 19 26 10 14 1013.2 1012.7 23.2
14/05:00am 17.1 15.7 17.1 100 0.0 N 20 33 11 18 1013.1 1012.6 21.2
14/04:56am 17.3 16.0 17.3 100 0.0 N 20 33 11 18 1013.0 1012.5 21.0
14/04:30am 17.5 16.5 17.5 100 0.0 NNE 19 28 10 15 1013.1 1012.6 19.2
14/04:00am 17.1 17.1 17.1 100 0.0 NE 13 19 7 10 1013.2 1012.7 17.8
14/03:50am 17.1 17.1 17.1 100 0.0 NE 13 19 7 10 1013.2 1012.7 17.4
14/03:30am 17.1 17.1 17.1 100 0.0 ENE 13 15 7 8 1013.4 1012.9 16.8
14/03:18am 17.0 16.5 17.0 100 0.0 ENE 15 19 8 10 1013.4 1012.9 16.6
14/03:00am 17.0 16.2 17.0 100 0.0 ENE 17 19 9 10 1013.7 1013.2 15.8
14/02:30am 17.0 16.5 17.0 100 0.0 E 15 17 8 9 1014.3 1013.7 13.2
14/02:16am 17.1 17.1 17.1 100 0.0 E 13 15 7 8 1014.3 1013.7 12.4
14/02:00am 17.1 17.4 17.1 100 0.0 E 11 15 6 8 1014.6 1014.0 11.0
14/01:30am 17.1 17.8 17.1 100 0.0 E 9 9 5 5 1015.3 1014.7 10.2
14/01:00am 17.1 18.4 17.1 100 0.0 ENE 6 7 3 4 1015.7 1015.1 9.6
14/12:30am 17.1 18.2 17.1 100 0.0 NE 7 7 4 4 1016.1 1015.6 8.8
14/12:00am 17.2 18.3 17.2 100 0.0 NE 7 9 4 5 1016.2 1015.7 7.8
 
Date/Time
EDT
Temp
°C
App
Temp
°C
Dew
Point
°C
Rel
Hum
%
Delta-T
°C
Wind Press
QNH
hPa
Press
MSL
hPa
Rain since
9am
mm
Dir  Spd
km/h
Gust
km/h
Spd
kts
Gust
kts
13/11:30pm 17.2 18.5 17.2 100 0.0 NE 6 7 3 4 1016.3 1015.8 7.2
13/11:00pm 17.2 18.0 17.2 100 0.0 NE 9 11 5 6 1016.6 1016.1 6.4
13/10:30pm 17.4 18.5 17.2 99 0.1 ENE 7 9 4 5 1016.5 1016.0 5.4
13/10:00pm 17.5 20.0 17.3 99 0.1 CALM 0 0 0 0 1016.6 1016.1 4.0
13/09:34pm 17.7 20.3 17.4 98 0.2 CALM 0 0 0 0 1016.6 1016.1 2.6
13/09:30pm 17.8 20.4 17.5 98 0.2 CALM 0 0 0 0 1016.5 1016.0 2.4
13/09:00pm 18.0 20.3 16.7 92 0.8 CALM 0 4 0 2 1016.2 1015.7 1.4
13/08:30pm 18.0 18.9 16.5 91 0.9 W 7 9 4 5 1016.1 1015.6 0.8
13/08:00pm 18.4 18.8 16.4 88 1.2 W 9 13 5 7 1016.0 1015.5 0.6
13/07:30pm 19.2 18.9 16.4 84 1.7 W 13 15 7 8 1015.7 1015.1 0.4
13/07:00pm 20.3 19.6 15.3 73 3.0 W 13 17 7 9 1015.5 1014.9 0.0
13/06:30pm 20.7 20.6 15.0 70 3.4 WSW 9 9 5 5 1015.2 1014.6 0.0
13/06:00pm 21.0 20.3 15.3 70 3.4 WSW 13 19 7 10 1015.2 1014.6 0.0
13/05:30pm 22.0 20.7 14.9 64 4.2 SW 15 19 8 10 1015.0 1014.4 0.0
13/05:00pm 21.4 19.0 13.8 62 4.4 WSW 19 24 10 13 1014.7 1014.1 0.0
13/04:30pm 23.2 18.3 12.5 51 6.2 W 30 43 16 23 1014.4 1013.8 0.0
13/04:20pm 24.6 19.4 10.1 40 8.1 W 28 48 15 26 1014.3 1013.7 0.0
13/04:00pm 25.9 21.5 8.8 34 9.4 W 22 32 12 17 1013.9 1013.4 0.0
13/03:30pm 26.6 22.9 8.1 31 10.1 W 17 24 9 13 1014.2 1013.6 0.0
13/03:00pm 27.5 21.7 7.9 29 10.7 WNW 28 33 15 18 1014.2 1013.6 0.0
13/02:30pm 27.6 23.8 7.5 28 10.9 NNW 17 28 9 15 1014.4 1013.8 0.0

Other Formats:

Comma delimited format used in spreadsheet applications
http://www.bom.gov.au/fwo/IDN60801/IDN60801.94910.axf

JavaScript Object Notation format (JSON) in row-major order
http://www.bom.gov.au/fwo/IDN60801/IDN60801.94910.json